發表時間 文章標題 人氣 留言
2017-03-14 推薦大通超扁平壁掛高速乙太網HDMI線2米(HD-2F)-活動 (0) (0)
2017-03-14 非買不可E-books S35音控接聽耳機-黑(E-EPA105BK)-消耗品 (0) (0)
2017-03-14 搶先看EUPA 電子式烤麵包機(TSK-2588)-智慧型 (0) (0)
2017-03-14 強檔精選【法國特福】頂級御廚系列28CM不沾平底鍋+蓋(C6820672+FP28301)-居家達人 (0) (0)
2017-03-14 好康【展示機】Garmin Nuvi 4695R 智慧連網衛星導航(Nuvi 4695R)-限時活動折扣 (0) (0)
2017-03-13 好康推推SAMSUNG 825公升藏鮮愛現門對開冰箱(RH80J81327F-TW)-現省 (0) (0)
2017-03-13 哪裡買便宜【27型】ASUS IPS液晶顯示器(PG27AQ)-優惠網站 (0) (0)
2017-03-13 熱門商品KRIA可利亞 1.2L雙層防燙304#不鏽鋼電水壼(KR-1723)-周年慶 (0) (0)
2017-03-13 好康推推通用壁掛架 32~55(L-2)-限量商品 (0) (0)
2017-03-13 優惠專區SodaSparkle舒打健康氣泡水機簡約款-黑(SS-ECO1L-BK)-哪個最便宜 (0) (0)
2017-03-13 最新Jabra Coach Wireless SE 運動偵測藍牙耳機(181001215D)-活動折扣搶先預定 (0) (0)
2017-03-13 推薦SHARP FU-D80T清淨機甲醛濾網(FZ-D80VFE)-熱門 (0) (0)
2017-03-13 超搶手SHARP 日本進口12坪自動除菌離子清淨機(KC-JD50T-W)-下殺 (0) (0)
2017-03-13 經典人因 E380頭戴式三用耳機麥克風-粉紅(E380P)-活動折扣搶先預定 (0) (0)
2017-03-13 哪裡買【20型】ViewSonic VA2055SM MVA(VA2055SM)-熱賣中 (0) (0)
2017-03-13 強檔精選Electrolux 吸塵器集塵袋(ES01)-時尚商品 (0) (0)
2017-03-12 哪裡買聲寶 580公升2級雙門冰箱(SR-M58G(G3)晶鑽灰)-手機開箱文 (0) (0)
2017-03-12 破盤日本琺瑯月兔印 0.7L手沖壺-黃(CW-B0.7L-Y)-本月優惠 (0) (0)
2017-03-12 哪裡買便宜歐樂B 3D電動牙刷(黑)(Genius9000-極致黑)-好康 (0) (0)
2017-03-12 經典Vornado 空氣循環機(5-8坪)(633-TW)-好康偷偷說 (0) (0)
2017-03-12 驚喜商品Garmin Vivo Smart HR腕式心率智慧手環-藍(Vivo Smart HR)-快速到貨網拍 (0) (0)
2017-03-12 哪裡買便宜大同 15公斤單槽變頻洗衣機(TAW-A150DC)-最新 (0) (0)
2017-03-12 今日特惠Pioneer 耳罩式耳機 SE-MJ721-白(SE-MJ721-W)-暢銷熱賣 (0) (0)
2017-03-12 超值推SONY MDR-EX250AP入耳式耳麥-白(MDREX250APWQE)-居家商品 (0) (0)
2017-03-12 超值推Meitu M6美圖智慧機(3G-64G)-粉(M6-PK)-商品 (0) (0)
2017-03-12 鄉民秒殺美國Blendtec數位全能調理機(SPACE SAVER)-戰利品 (2) (0)
2017-03-12 優惠專區Garmin GDR43高畫質廣角行車記錄器(GDR43)-獨家 (0) (0)
2017-03-12 哪裡買便宜Electrolux 掛燙機(EGS2103)-快速到貨網拍 (0) (0)
2017-03-12 好康報報SAMSUNG 55型4K LED智慧型液晶電視(UA55KU6400WXZW)-明星推薦 (0) (0)
2017-03-12 好康報報【展示機】Garmin 2567T 車用衛星導航(nuvi 2567T)-大力推薦 (0) (0)
2017-03-12 評價虎牌6人份微電腦多功能炊飯電子鍋(JAX-R10R)-網友開箱介紹 (0) (0)
2017-03-11 本周精選晶工櫥上型快捷式濾水器(FD-3213L)-直殺成本 (0) (0)
2017-03-11 破盤Breo 輕巧頭皮按摩器(Scalp S)-好用推薦 (0) (0)
2017-03-11 強檔優惠大家源樂活碎冰果汁機(TCY-6735)-特惠 (0) (0)
2017-03-11 團購KINYO 2.1聲道重低音木質音箱(KY-5950)-2016 (0) (0)
2017-03-11 搶購好康Panasonic RP-DJS150耳機-藍(RP-DJS150-A)-滿額免運 (0) (0)
2017-03-11 非買不可TTRobotix GHOST+6S 6000mAh電池(BT6204)-好康推推 (0) (0)
2017-03-11 強檔精選BRITA fill&enjoy Fun 酷樂濾水壺(紫)(fill&enjoy Fun(紫))-省錢 (0) (0)
2017-03-11 最便宜三洋141公升冷凍櫃(SCF-141T)-網友一致推薦 (0) (0)
2017-03-11 哪裡買便宜德國LIEBHERR 3尺4 弧形玻璃推拉冷凍櫃(EFI-2753)-僅此一檔 (0) (0)
2017-03-11 今日特惠iRobot Braava jet 240拖地機器人(Braava jet 240)-出清特賣 (0) (0)
2017-03-11 驚喜商品Panasonic 500公升ECONAVI四門玻璃變頻冰箱(NR-D508NHGS-W(翡翠白))-禮物 (0) (0)
2017-03-11 好康分享CANON EOS 5D Mark III 單眼相機 (KIT)(24-105mm(公司貨))-好康偷偷說 (0) (0)
2017-03-11 哪裡買NIKON D810 BODY 旗艦型全片幅單眼相機(D810(公司貨))-限時活動折扣 (0) (0)
2017-03-10 買到賺到可利亞1.8L雙層防燙蒸煮美食鍋-橘(KR-D029)-開箱文 (0) (0)
2017-03-10 心得配件王PJW 萬用型電視遙控器(RC-UN2)-團購 (0) (0)
2017-03-10 經典可利亞3人份可攜式蒸煮電子鍋-粉(KR-1102)-哪裡便宜 (0) (0)
2017-03-10 網友開箱介紹【福利品 】Panasonic 579公升1級 雙門變頻冰箱(NR-B585TV-HL(珍珠銀))-明星推薦 (0) (0)
2017-03-10 CP值爆表Panasonic RP-TCM50入耳式耳機-白(RP-TCM50-W)-智慧型 (0) (0)
2017-03-10 網友開箱介紹Panasonic GF7X可交換式鏡頭相機-白(DMC-GF7X-W)-當紅網路話題 (0) (0)